Time;durP1;ratioP1;P1;durP2;ratioP2;P2;SDS_P1;SDS_P2;PMS_P1;PMS_P2;Temp;Humidity;BMP_temperature;BMP_pressure;BME280_temperature;BME280_humidity;BME280_pressure;Samples;Min_cycle;Max_cycle;Signal;HPM_P1;HPM_P2
2021/07/10 00:05:14;;;;;;;34.30;22.25;;;;;;;;;;6226282;22;21006;31
2021/07/10 00:26:08;;;;;;;;;;;;;;;;;;5703649;22;20033;-83
2021/07/10 00:31:25;;;;;;;31.10;21.38;;;;;;;;;;6109947;22;20054;-83
2021/07/10 02:15:15;;;;;;;53.03;28.25;;;;;;;;;;5347923;22;19925;-82
2021/07/10 03:18:10;;;;;;;43.78;27.17;;;;;;;;;;5276569;22;20029;-82
2021/07/10 04:20:12;;;;;;;29.40;20.85;;;;;;;;;;5554174;22;20064;-82
2021/07/10 04:49:11;;;;;;;34.92;22.58;;;;;;;;;;5778760;22;20038;-83
2021/07/10 05:28:18;;;;;;;32.13;22.70;;;;;;;;;;5795952;22;20057;-79
2021/07/10 05:30:47;;;;;;;38.95;22.92;;;;;;;;;;5081444;28;38947;-80
2021/07/10 05:33:19;;;;;;;36.50;24.48;;;;;;;;;;5093484;28;40251;-80
2021/07/10 05:35:52;;;;;;;30.65;21.42;;;;;;;;;;5080581;28;37810;-80
2021/07/10 05:38:26;;;;;;;32.95;21.50;;;;;;;;;;5076597;28;39193;-80
2021/07/10 05:40:53;;;;;;;31.58;21.15;;;;;;;;;;5078494;28;39773;-80
2021/07/10 05:43:23;;;;;;;29.02;20.15;;;;;;;;;;5074256;28;35937;-80
2021/07/10 05:45:51;;;;;;;27.25;18.23;;;;;;;;;;5080052;28;37036;-80
2021/07/10 05:48:19;;;;;;;33.83;20.88;;;;;;;;;;5091524;28;39925;-80
2021/07/10 05:50:46;;;;;;;39.67;25.42;;;;;;;;;;5074846;28;37842;-80
2021/07/10 05:53:16;;;;;;;34.22;22.73;;;;;;;;;;5081993;28;38827;-81
2021/07/10 05:55:43;;;;;;;30.20;21.23;;;;;;;;;;5077488;28;36392;-80
2021/07/10 05:58:14;;;;;;;30.90;21.30;;;;;;;;;;5079509;28;37823;-81
2021/07/10 06:00:41;;;;;;;30.23;20.90;;;;;;;;;;5083943;28;37259;-81
2021/07/10 06:03:07;;;;;;;27.95;20.15;;;;;;;;;;5084494;28;39466;-80
2021/07/10 06:05:36;;;;;;;32.53;23.08;;;;;;;;;;5080945;27;36343;-81
2021/07/10 06:08:02;;;;;;;31.77;22.13;;;;;;;;;;5080059;28;37279;-80
2021/07/10 06:10:29;;;;;;;29.77;21.65;;;;;;;;;;5078990;28;37245;-80
2021/07/10 06:12:55;;;;;;;34.45;23.98;;;;;;;;;;5083021;28;37287;-81
2021/07/10 06:15:22;;;;;;;37.00;24.20;;;;;;;;;;5079009;27;36219;-80
2021/07/10 06:17:52;;;;;;;36.15;25.63;;;;;;;;;;5090846;28;38654;-81
2021/07/10 06:20:26;;;;;;;36.45;24.02;;;;;;;;;;5078963;28;39987;-80
2021/07/10 06:22:58;;;;;;;28.10;22.08;;;;;;;;;;5083415;28;38532;-80
2021/07/10 06:25:24;;;;;;;31.73;20.75;;;;;;;;;;5067109;27;36858;-81
2021/07/10 06:27:51;;;;;;;32.40;22.67;;;;;;;;;;5101150;28;39372;-81
2021/07/10 06:30:18;;;;;;;29.17;21.00;;;;;;;;;;5089417;28;38345;-81
2021/07/10 06:32:55;;;;;;;27.77;20.48;;;;;;;;;;5088766;28;38818;-81
2021/07/10 06:35:22;;;;;;;25.65;19.52;;;;;;;;;;5103621;28;37558;-80
2021/07/10 06:37:50;;;;;;;24.65;19.00;;;;;;;;;;5088651;28;37970;-81
2021/07/10 06:40:17;;;;;;;26.45;18.90;;;;;;;;;;5084656;28;37096;-81
2021/07/10 06:43:22;;;;;;;30.80;22.75;;;;;;;;;;5087213;28;40071;-81
2021/07/10 06:45:55;;;;;;;28.38;21.25;;;;;;;;;;5024733;28;46859;-80
2021/07/10 06:48:22;;;;;;;31.08;21.67;;;;;;;;;;5030780;28;39259;-81
2021/07/10 06:50:58;;;;;;;29.05;20.02;;;;;;;;;;5067378;28;38106;-80
2021/07/10 06:53:24;;;;;;;22.10;16.83;;;;;;;;;;5083298;28;38704;-81
2021/07/10 06:55:54;;;;;;;35.22;21.60;;;;;;;;;;5084687;27;37284;-80
2021/07/10 06:58:21;;;;;;;24.83;18.42;;;;;;;;;;5083332;28;38995;-80
2021/07/10 07:00:47;;;;;;;28.77;19.30;;;;;;;;;;5103461;27;38626;-80
2021/07/10 07:03:14;;;;;;;26.05;17.70;;;;;;;;;;5085881;28;37821;-82
2021/07/10 07:05:41;;;;;;;26.88;19.27;;;;;;;;;;5084638;28;35878;-82
2021/07/10 07:08:07;;;;;;;31.02;21.25;;;;;;;;;;5079901;28;40265;-81
2021/07/10 07:10:34;;;;;;;29.33;21.05;;;;;;;;;;5085532;28;38609;-80
2021/07/10 07:13:19;;;;;;;28.00;19.77;;;;;;;;;;5077752;28;37462;-81
2021/07/10 07:15:46;;;;;;;25.23;20.25;;;;;;;;;;5100282;28;47759;-80
2021/07/10 07:18:15;;;;;;;28.35;18.92;;;;;;;;;;5071891;28;37548;-78
2021/07/10 07:20:44;;;;;;;28.08;18.98;;;;;;;;;;5091901;28;38372;-80
2021/07/10 07:23:11;;;;;;;25.45;19.05;;;;;;;;;;5080818;28;37752;-80
2021/07/10 07:25:38;;;;;;;24.75;18.35;;;;;;;;;;5087647;28;36620;-81
2021/07/10 07:28:05;;;;;;;29.38;19.70;;;;;;;;;;5096234;28;39027;-81
2021/07/10 07:30:31;;;;;;;26.13;18.17;;;;;;;;;;5076938;28;38694;-81
2021/07/10 07:33:03;;;;;;;23.88;16.45;;;;;;;;;;5088762;28;39059;-80
2021/07/10 07:35:29;;;;;;;22.27;16.52;;;;;;;;;;5062920;28;47848;-81
2021/07/10 07:37:57;;;;;;;23.15;17.40;;;;;;;;;;5096248;28;39630;-81
2021/07/10 07:40:24;;;;;;;22.27;15.32;;;;;;;;;;5077636;28;37708;-81
2021/07/10 07:42:51;;;;;;;21.75;15.40;;;;;;;;;;5069712;28;38707;-80
2021/07/10 07:45:18;;;;;;;26.00;18.30;;;;;;;;;;5060913;27;38115;-80
2021/07/10 07:47:48;;;;;;;21.90;16.17;;;;;;;;;;5053950;28;38689;-81
2021/07/10 07:53:27;;;;;;;22.60;15.40;;;;;;;;;;5284967;22;39819;-82
2021/07/10 07:56:18;;;;;;;26.52;17.40;;;;;;;;;;5035963;28;37330;-83
2021/07/10 07:58:44;;;;;;;19.38;15.50;;;;;;;;;;5027847;28;46989;-79
2021/07/10 08:01:11;;;;;;;20.58;14.63;;;;;;;;;;5024311;28;39439;-79
2021/07/10 08:03:41;;;;;;;26.48;17.35;;;;;;;;;;5016267;28;38428;-79
2021/07/10 08:06:13;;;;;;;24.35;16.77;;;;;;;;;;5022339;28;37307;-80
2021/07/10 08:08:53;;;;;;;25.75;18.02;;;;;;;;;;5028714;28;37620;-81
2021/07/10 08:11:20;;;;;;;25.10;18.30;;;;;;;;;;5013413;28;38922;-81
2021/07/10 08:13:48;;;;;;;22.05;16.48;;;;;;;;;;5027273;28;37153;-81
2021/07/10 08:16:15;;;;;;;28.17;18.17;;;;;;;;;;5020243;28;36767;-81
2021/07/10 08:18:49;;;;;;;27.40;18.25;;;;;;;;;;5033513;28;39231;-82
2021/07/10 08:21:16;;;;;;;23.33;17.13;;;;;;;;;;5015649;28;38911;-80
2021/07/10 08:27:06;;;;;;;24.02;17.80;;;;;;;;;;5040081;28;50722;-82
2021/07/10 08:29:46;;;;;;;27.90;20.27;;;;;;;;;;5014843;28;49258;-82
2021/07/10 08:32:29;;;;;;;33.20;22.05;;;;;;;;;;4999270;28;38895;-83
2021/07/10 08:34:58;;;;;;;32.83;23.10;;;;;;;;;;5059244;28;38402;-81
2021/07/10 08:37:24;;;;;;;27.40;20.98;;;;;;;;;;5049158;28;37248;-81
2021/07/10 08:39:51;;;;;;;29.27;21.70;;;;;;;;;;5050273;28;37550;-79
2021/07/10 08:42:20;;;;;;;28.25;19.58;;;;;;;;;;5059658;28;38545;-81
2021/07/10 08:44:51;;;;;;;29.13;21.55;;;;;;;;;;5040325;28;38719;-79
2021/07/10 08:47:18;;;;;;;27.75;20.20;;;;;;;;;;5068651;28;37642;-80
2021/07/10 08:49:44;;;;;;;27.63;20.42;;;;;;;;;;5065064;28;38604;-81
2021/07/10 08:52:11;;;;;;;30.08;21.83;;;;;;;;;;5051746;28;40913;-79
2021/07/10 08:57:28;;;;;;;26.10;20.58;;;;;;;;;;5091404;22;20037;-81
2021/07/10 08:59:56;;;;;;;27.38;20.38;;;;;;;;;;5046955;28;38979;-81
2021/07/10 09:02:40;;;;;;;27.02;19.30;;;;;;;;;;5043368;28;39694;-82
2021/07/10 09:05:16;;;;;;;26.05;19.40;;;;;;;;;;5070374;28;39359;-80
2021/07/10 09:08:01;;;;;;;20.55;16.55;;;;;;;;;;5073033;22;37948;-78
2021/07/10 09:10:38;;;;;;;24.15;17.88;;;;;;;;;;5036911;27;48396;-82
2021/07/10 09:13:04;;;;;;;18.55;14.40;;;;;;;;;;5065077;28;37835;-81
2021/07/10 09:15:32;;;;;;;17.98;14.30;;;;;;;;;;5078104;28;38881;-81
2021/07/10 09:17:59;;;;;;;22.17;16.08;;;;;;;;;;5075789;28;36410;-80
2021/07/10 09:20:26;;;;;;;23.23;17.35;;;;;;;;;;5072122;28;39115;-81
2021/07/10 09:22:55;;;;;;;19.95;15.80;;;;;;;;;;5075162;28;39701;-82
2021/07/10 09:25:32;;;;;;;19.42;14.88;;;;;;;;;;5093740;22;39729;-80
2021/07/10 09:28:02;;;;;;;19.88;14.98;;;;;;;;;;5048836;28;36702;-79
2021/07/10 09:30:35;;;;;;;21.27;15.23;;;;;;;;;;5067512;27;47303;-80
2021/07/10 09:33:16;;;;;;;19.17;13.10;;;;;;;;;;5061273;28;39555;-80
2021/07/10 09:35:54;;;;;;;20.67;14.53;;;;;;;;;;5079480;28;47076;-81
2021/07/10 09:38:22;;;;;;;20.23;14.23;;;;;;;;;;5056314;28;37365;-81
2021/07/10 09:41:00;;;;;;;16.48;12.35;;;;;;;;;;5065410;28;39854;-81
2021/07/10 09:43:32;;;;;;;13.05;9.77;;;;;;;;;;5053176;28;37135;-81
2021/07/10 09:46:02;;;;;;;16.27;11.20;;;;;;;;;;5065061;28;39316;-81
2021/07/10 09:48:31;;;;;;;13.27;11.32;;;;;;;;;;5048558;28;50819;-81
2021/07/10 09:51:17;;;;;;;13.88;10.02;;;;;;;;;;5056515;28;39537;-81
2021/07/10 09:53:57;;;;;;;13.10;10.60;;;;;;;;;;5056612;28;48175;-81
2021/07/10 09:56:25;;;;;;;14.35;11.18;;;;;;;;;;5061862;28;37310;-81
2021/07/10 09:58:52;;;;;;;14.25;11.10;;;;;;;;;;5059848;28;37765;-80
2021/07/10 10:01:28;;;;;;;19.35;13.80;;;;;;;;;;5052305;28;38546;-80
2021/07/10 10:03:55;;;;;;;16.65;12.48;;;;;;;;;;5054392;28;37514;-80
2021/07/10 10:06:31;;;;;;;19.10;13.43;;;;;;;;;;5060367;28;37352;-80
2021/07/10 10:09:01;;;;;;;16.45;12.98;;;;;;;;;;5057498;28;37332;-81
2021/07/10 10:12:01;;;;;;;14.38;12.05;;;;;;;;;;5053888;28;47578;-80
2021/07/10 10:14:29;;;;;;;14.88;10.88;;;;;;;;;;5034653;28;47571;-80
2021/07/10 10:16:59;;;;;;;17.52;12.15;;;;;;;;;;5057118;28;40180;-81
2021/07/10 10:19:31;;;;;;;18.10;11.95;;;;;;;;;;5050320;28;37802;-80
2021/07/10 10:22:01;;;;;;;9.82;8.00;;;;;;;;;;5040916;28;37662;-81
2021/07/10 10:24:37;;;;;;;11.15;8.00;;;;;;;;;;5053696;28;37994;-81
2021/07/10 10:27:23;;;;;;;12.48;10.43;;;;;;;;;;5019764;28;38770;-82
2021/07/10 10:30:42;;;;;;;12.60;8.93;;;;;;;;;;5073376;28;39013;-82
2021/07/10 10:33:36;;;;;;;10.40;8.20;;;;;;;;;;4992624;28;48843;-83
2021/07/10 10:36:35;;;;;;;10.63;7.68;;;;;;;;;;5040460;28;50434;-81
2021/07/10 10:39:31;;;;;;;8.60;7.03;;;;;;;;;;5080728;28;39330;-81
2021/07/10 10:42:18;;;;;;;9.43;8.18;;;;;;;;;;5048293;28;38143;-81
2021/07/10 10:47:56;;;;;;;14.07;10.50;;;;;;;;;;5048288;28;50749;-81
2021/07/10 10:56:30;;;;;;;13.13;9.75;;;;;;;;;;5058082;28;20028;-80
2021/07/10 10:58:59;;;;;;;13.50;8.98;;;;;;;;;;5036201;28;39948;-80
2021/07/10 11:01:36;;;;;;;10.13;8.05;;;;;;;;;;5054333;28;47924;-79
2021/07/10 11:04:03;;;;;;;8.73;7.78;;;;;;;;;;5088750;22;37221;-81
2021/07/10 11:06:33;;;;;;;9.95;8.18;;;;;;;;;;5096803;28;39675;-81
2021/07/10 11:11:59;;;;;;;9.18;7.05;;;;;;;;;;5052597;28;50436;-81
2021/07/10 11:14:53;;;;;;;10.57;7.85;;;;;;;;;;5059514;28;38273;-81
2021/07/10 11:20:04;;;;;;;12.00;9.17;;;;;;;;;;5130475;22;9316294;-81
2021/07/10 11:22:49;;;;;;;9.73;7.53;;;;;;;;;;5083191;28;20064;-81
2021/07/10 11:25:16;;;;;;;12.57;9.57;;;;;;;;;;5077145;28;39366;-81
2021/07/10 11:28:16;;;;;;;9.13;7.68;;;;;;;;;;5069731;28;39170;-81
2021/07/10 11:33:11;;;;;;;13.02;8.85;;;;;;;;;;5020886;28;20137;-82
2021/07/10 11:35:44;;;;;;;9.48;6.95;;;;;;;;;;5034387;28;37126;-88
2021/07/10 11:38:29;;;;;;;8.82;7.68;;;;;;;;;;5039293;28;38739;-83
2021/07/10 11:41:00;;;;;;;12.18;7.60;;;;;;;;;;5032720;28;41044;-85
2021/07/10 11:43:39;;;;;;;6.50;5.57;;;;;;;;;;5040843;28;39394;-84
2021/07/10 11:46:06;;;;;;;8.70;6.53;;;;;;;;;;5046825;28;36892;-82
2021/07/10 11:48:33;;;;;;;8.85;7.45;;;;;;;;;;5030483;28;36622;-82
2021/07/10 11:51:01;;;;;;;7.80;6.03;;;;;;;;;;5057356;28;38506;-83
2021/07/10 11:53:28;;;;;;;6.15;5.53;;;;;;;;;;5036644;28;47411;-83
2021/07/10 11:55:57;;;;;;;6.18;5.47;;;;;;;;;;5032916;28;37986;-85
2021/07/10 11:58:24;;;;;;;5.78;4.55;;;;;;;;;;5058893;28;37391;-83
2021/07/10 12:00:50;;;;;;;5.18;4.68;;;;;;;;;;5029032;28;39458;-81
2021/07/10 12:03:26;;;;;;;5.03;4.55;;;;;;;;;;5030760;28;39138;-81
2021/07/10 12:05:57;;;;;;;4.80;4.40;;;;;;;;;;5051026;28;38682;-84
2021/07/10 12:08:24;;;;;;;4.97;3.92;;;;;;;;;;5038709;28;36240;-82
2021/07/10 12:10:51;;;;;;;5.80;4.53;;;;;;;;;;5032558;28;40055;-84
2021/07/10 12:13:25;;;;;;;5.25;4.10;;;;;;;;;;5059164;28;37987;-84
2021/07/10 12:15:51;;;;;;;4.38;3.97;;;;;;;;;;5036618;28;38815;-86
2021/07/10 12:18:22;;;;;;;6.80;4.38;;;;;;;;;;5035715;28;35972;-89
2021/07/10 12:20:59;;;;;;;4.10;3.40;;;;;;;;;;5056630;28;39510;-88
2021/07/10 12:23:29;;;;;;;5.90;4.25;;;;;;;;;;5041027;28;39724;-88
2021/07/10 12:25:59;;;;;;;3.42;3.13;;;;;;;;;;5059280;28;37581;-88
2021/07/10 12:28:37;;;;;;;4.05;3.15;;;;;;;;;;5049193;28;36182;-88
2021/07/10 12:31:05;;;;;;;4.22;3.45;;;;;;;;;;5046856;28;37827;-89
2021/07/10 12:33:37;;;;;;;3.75;3.28;;;;;;;;;;5040135;28;38493;-88
2021/07/10 12:36:07;;;;;;;4.55;2.95;;;;;;;;;;5052908;28;39058;-87
2021/07/10 12:38:34;;;;;;;4.60;4.10;;;;;;;;;;5039530;28;37290;-86
2021/07/10 12:41:20;;;;;;;5.32;4.38;;;;;;;;;;5043167;28;39835;-84
2021/07/10 12:43:46;;;;;;;3.90;3.47;;;;;;;;;;5038668;28;48698;-84
2021/07/10 12:46:13;;;;;;;3.63;3.20;;;;;;;;;;5028777;28;37175;-86
2021/07/10 12:48:39;;;;;;;4.63;3.53;;;;;;;;;;5038875;28;38349;-85
2021/07/10 12:51:05;;;;;;;3.80;3.33;;;;;;;;;;5043942;28;40095;-84
2021/07/10 12:53:36;;;;;;;4.22;3.35;;;;;;;;;;5031833;28;37628;-84
2021/07/10 12:56:33;;;;;;;3.53;3.22;;;;;;;;;;5039435;28;39699;-84
2021/07/10 12:58:59;;;;;;;5.90;3.55;;;;;;;;;;5042637;28;39628;-83
2021/07/10 13:01:26;;;;;;;3.70;3.22;;;;;;;;;;5042488;28;38513;-83
2021/07/10 13:03:54;;;;;;;5.70;3.67;;;;;;;;;;5040963;28;39322;-83
2021/07/10 13:06:20;;;;;;;5.38;4.13;;;;;;;;;;5058929;28;41648;-85
2021/07/10 13:08:51;;;;;;;4.10;3.40;;;;;;;;;;5040956;28;37846;-84
2021/07/10 13:11:17;;;;;;;6.65;4.22;;;;;;;;;;5054668;28;37701;-83
2021/07/10 13:14:01;;;;;;;3.53;3.22;;;;;;;;;;5030826;28;37953;-86
2021/07/10 13:16:33;;;;;;;5.35;4.30;;;;;;;;;;5037872;28;47505;-85
2021/07/10 13:18:59;;;;;;;;;;;;;;;;;;5045697;28;37775;-86
2021/07/10 13:21:33;;;;;;;5.90;4.55;;;;;;;;;;5060316;28;41614;-86
2021/07/10 13:24:04;;;;;;;4.55;4.05;;;;;;;;;;5037954;28;40034;-88
2021/07/10 13:26:51;;;;;;;4.57;4.10;;;;;;;;;;5042447;28;49098;-90
2021/07/10 13:29:21;;;;;;;5.47;4.90;;;;;;;;;;5041670;28;38104;-87
2021/07/10 13:32:00;;;;;;;5.85;5.15;;;;;;;;;;5050092;28;38640;-88
2021/07/10 13:34:27;;;;;;;5.18;4.68;;;;;;;;;;5032174;28;38647;-88
2021/07/10 13:37:02;;;;;;;8.73;5.13;;;;;;;;;;5049375;28;38143;-89
2021/07/10 13:39:30;;;;;;;7.05;5.25;;;;;;;;;;5021859;28;47932;-88
2021/07/10 13:41:58;;;;;;;8.63;5.40;;;;;;;;;;5047705;28;39028;-88
2021/07/10 13:44:45;;;;;;;5.28;4.78;;;;;;;;;;5018868;28;38688;-87
2021/07/10 13:47:19;;;;;;;7.35;5.05;;;;;;;;;;5025432;28;38967;-89
2021/07/10 13:49:56;;;;;;;7.13;4.78;;;;;;;;;;5040365;28;38187;-82
2021/07/10 13:52:27;;;;;;;12.23;5.28;;;;;;;;;;5018530;28;40051;-88
2021/07/10 13:55:12;;;;;;;7.18;5.47;;;;;;;;;;5029810;28;38990;-88
2021/07/10 13:57:48;;;;;;;6.55;5.70;;;;;;;;;;5029381;28;47593;-86
2021/07/10 14:00:16;;;;;;;7.30;6.55;;;;;;;;;;5070405;28;37032;-86
2021/07/10 14:02:47;;;;;;;6.53;5.75;;;;;;;;;;5047906;28;39207;-86
2021/07/10 14:05:18;;;;;;;6.80;5.55;;;;;;;;;;5053494;28;37822;-86
2021/07/10 14:07:55;;;;;;;7.20;5.57;;;;;;;;;;5065482;28;37484;-87
2021/07/10 14:10:31;;;;;;;7.47;6.75;;;;;;;;;;5029306;28;37811;-86
2021/07/10 14:12:59;;;;;;;9.05;6.97;;;;;;;;;;5061740;28;37481;-86
2021/07/10 14:15:26;;;;;;;9.02;6.72;;;;;;;;;;5059962;28;37415;-87
2021/07/10 14:17:52;;;;;;;9.57;8.18;;;;;;;;;;5056352;28;37327;-87
2021/07/10 14:20:19;;;;;;;11.73;9.38;;;;;;;;;;5045662;28;35900;-87
2021/07/10 14:22:48;;;;;;;11.52;9.73;;;;;;;;;;5065420;28;38508;-85
2021/07/10 14:25:19;;;;;;;16.85;11.38;;;;;;;;;;5043027;28;38806;-87
2021/07/10 14:27:46;;;;;;;15.38;11.77;;;;;;;;;;5066033;28;38889;-86
2021/07/10 14:30:30;;;;;;;17.23;14.55;;;;;;;;;;5021412;28;37373;-85
2021/07/10 14:36:08;;;;;;;21.70;15.38;;;;;;;;;;5021790;28;49337;-84
2021/07/10 14:38:37;;;;;;;20.17;15.98;;;;;;;;;;4993419;28;37619;-84
2021/07/10 14:41:43;;;;;;;25.05;18.17;;;;;;;;;;5025779;28;36475;-85
2021/07/10 14:46:46;;;;;;;19.40;14.77;;;;;;;;;;2334114;22;20033;-82
2021/07/10 14:49:13;;;;;;;18.38;15.20;;;;;;;;;;5051363;28;39241;-80
2021/07/10 14:51:39;;;;;;;18.10;14.63;;;;;;;;;;5058040;28;36628;-78
2021/07/10 14:54:06;;;;;;;18.50;14.82;;;;;;;;;;5057751;28;39360;-79
2021/07/10 14:56:32;;;;;;;17.02;13.73;;;;;;;;;;5052370;28;39623;-80
2021/07/10 14:58:58;;;;;;;14.90;11.93;;;;;;;;;;5064742;28;37872;-79
2021/07/10 15:01:25;;;;;;;12.63;11.05;;;;;;;;;;5062388;27;38204;-78
2021/07/10 15:03:51;;;;;;;11.90;10.20;;;;;;;;;;5064975;28;39102;-80
2021/07/10 15:06:18;;;;;;;10.68;9.52;;;;;;;;;;5055305;28;38404;-81
2021/07/10 15:08:47;;;;;;;10.77;9.52;;;;;;;;;;5054109;28;38394;-79
2021/07/10 15:11:14;;;;;;;13.40;10.80;;;;;;;;;;5053314;28;37356;-79
2021/07/10 15:13:40;;;;;;;11.48;9.30;;;;;;;;;;5052896;28;40361;-79
2021/07/10 15:16:06;;;;;;;12.40;10.05;;;;;;;;;;5057063;28;38353;-79
2021/07/10 15:18:33;;;;;;;14.90;10.40;;;;;;;;;;5052381;28;41769;-78
2021/07/10 15:20:59;;;;;;;10.93;9.23;;;;;;;;;;5044224;28;35712;-78
2021/07/10 15:23:25;;;;;;;10.20;9.18;;;;;;;;;;5047268;28;37967;-79
2021/07/10 15:25:52;;;;;;;9.52;8.52;;;;;;;;;;5054529;28;40223;-79
2021/07/10 15:28:18;;;;;;;9.50;8.50;;;;;;;;;;5055420;28;38622;-77
2021/07/10 15:30:45;;;;;;;9.05;8.15;;;;;;;;;;5045641;28;37371;-78
2021/07/10 15:33:11;;;;;;;10.60;8.57;;;;;;;;;;5060283;28;39201;-79
2021/07/10 15:35:38;;;;;;;8.77;7.07;;;;;;;;;;5058194;28;38661;-79
2021/07/10 15:38:06;;;;;;;8.63;7.50;;;;;;;;;;5054962;28;38301;-81
2021/07/10 15:40:33;;;;;;;8.60;7.35;;;;;;;;;;5060532;28;36628;-80
2021/07/10 15:42:59;;;;;;;9.35;7.82;;;;;;;;;;5051038;28;39455;-82
2021/07/10 15:45:26;;;;;;;9.35;8.10;;;;;;;;;;5055176;28;39600;-81
2021/07/10 15:47:52;;;;;;;10.52;7.78;;;;;;;;;;5051597;28;37357;-81
2021/07/10 15:50:20;;;;;;;8.23;7.30;;;;;;;;;;5054076;28;37539;-80
2021/07/10 15:52:49;;;;;;;11.30;8.57;;;;;;;;;;5050617;28;39434;-81
2021/07/10 15:55:17;;;;;;;11.02;8.10;;;;;;;;;;5054395;27;40115;-81
2021/07/10 15:57:44;;;;;;;8.48;7.57;;;;;;;;;;5056740;28;38858;-82
2021/07/10 16:00:12;;;;;;;9.90;8.77;;;;;;;;;;5051094;28;40282;-80
2021/07/10 16:02:38;;;;;;;9.18;8.20;;;;;;;;;;5057565;28;40841;-82
2021/07/10 16:05:06;;;;;;;8.13;7.28;;;;;;;;;;5051329;28;37517;-81
2021/07/10 16:07:32;;;;;;;12.13;7.97;;;;;;;;;;5048813;28;39019;-81
2021/07/10 16:09:58;;;;;;;12.02;9.50;;;;;;;;;;5050876;28;38753;-81
2021/07/10 16:12:26;;;;;;;11.05;8.27;;;;;;;;;;5052920;28;41684;-82
2021/07/10 16:14:53;;;;;;;10.02;8.80;;;;;;;;;;5051775;28;38615;-83
2021/07/10 16:17:19;;;;;;;10.25;8.82;;;;;;;;;;5052643;28;40742;-83
2021/07/10 16:19:46;;;;;;;8.60;7.43;;;;;;;;;;5050205;28;37947;-83
2021/07/10 16:22:12;;;;;;;9.77;8.25;;;;;;;;;;5050886;28;40727;-83
2021/07/10 16:24:39;;;;;;;9.45;7.97;;;;;;;;;;5049464;28;37715;-83
2021/07/10 16:27:06;;;;;;;8.40;7.40;;;;;;;;;;5040198;28;39221;-83
2021/07/10 16:29:32;;;;;;;8.60;6.95;;;;;;;;;;5050259;28;37394;-83
2021/07/10 16:31:59;;;;;;;8.10;7.30;;;;;;;;;;5058283;28;40315;-81
2021/07/10 16:34:25;;;;;;;6.93;6.22;;;;;;;;;;5058400;28;39065;-82
2021/07/10 16:36:51;;;;;;;6.82;6.13;;;;;;;;;;5064700;28;37027;-82
2021/07/10 16:39:18;;;;;;;6.18;5.38;;;;;;;;;;5059503;28;37069;-82
2021/07/10 16:41:44;;;;;;;6.32;5.70;;;;;;;;;;5062917;28;39428;-82
2021/07/10 16:44:10;;;;;;;7.30;5.82;;;;;;;;;;5056430;28;39112;-82
2021/07/10 16:46:37;;;;;;;7.05;6.35;;;;;;;;;;5059196;28;37082;-82
2021/07/10 16:49:03;;;;;;;7.63;6.82;;;;;;;;;;5060101;28;37195;-83
2021/07/10 16:51:30;;;;;;;7.97;6.50;;;;;;;;;;5060027;28;39262;-82
2021/07/10 16:53:56;;;;;;;8.00;7.20;;;;;;;;;;5064607;28;39485;-83
2021/07/10 16:56:22;;;;;;;8.02;7.10;;;;;;;;;;5058473;28;37601;-82
2021/07/10 16:58:49;;;;;;;9.85;8.35;;;;;;;;;;5061848;28;37190;-81
2021/07/10 17:01:16;;;;;;;11.32;7.95;;;;;;;;;;5058435;28;39416;-83
2021/07/10 17:03:42;;;;;;;10.20;8.90;;;;;;;;;;5057267;28;41319;-83
2021/07/10 17:06:09;;;;;;;11.38;9.73;;;;;;;;;;5066776;28;38942;-79
2021/07/10 17:08:36;;;;;;;11.15;9.48;;;;;;;;;;5056243;28;37765;-79
2021/07/10 17:11:04;;;;;;;10.93;9.70;;;;;;;;;;5057771;28;39529;-82
2021/07/10 17:13:31;;;;;;;14.43;12.23;;;;;;;;;;5071361;28;41674;-80
2021/07/10 17:15:57;;;;;;;11.10;9.85;;;;;;;;;;5065200;28;37556;-80
2021/07/10 17:18:23;;;;;;;11.45;9.77;;;;;;;;;;5059803;28;39072;-80
2021/07/10 17:20:50;;;;;;;11.60;9.00;;;;;;;;;;5057328;28;39871;-81
2021/07/10 17:23:17;;;;;;;10.52;9.43;;;;;;;;;;5061118;28;40608;-81
2021/07/10 17:25:43;;;;;;;11.40;10.18;;;;;;;;;;5064120;28;38559;-80
2021/07/10 17:28:09;;;;;;;10.50;9.38;;;;;;;;;;5055668;28;39712;-80
2021/07/10 17:30:36;;;;;;;10.55;9.43;;;;;;;;;;5063013;28;38949;-81
2021/07/10 17:33:03;;;;;;;10.75;8.57;;;;;;;;;;5060537;28;38298;-82
2021/07/10 17:35:29;;;;;;;11.23;8.55;;;;;;;;;;5059372;28;39733;-82
2021/07/10 17:37:56;;;;;;;11.07;9.05;;;;;;;;;;5059936;28;37219;-81
2021/07/10 17:40:22;;;;;;;12.60;10.20;;;;;;;;;;5054361;28;38503;-81
2021/07/10 17:42:49;;;;;;;11.30;9.80;;;;;;;;;;5058002;28;39071;-81
2021/07/10 17:45:16;;;;;;;12.23;9.40;;;;;;;;;;5062394;28;36813;-82
2021/07/10 17:47:43;;;;;;;11.52;10.02;;;;;;;;;;5061955;28;36423;-82
2021/07/10 17:50:11;;;;;;;14.25;10.43;;;;;;;;;;5063174;28;41504;-80
2021/07/10 17:52:37;;;;;;;13.50;10.77;;;;;;;;;;5057119;28;39377;-81
2021/07/10 17:55:05;;;;;;;13.90;11.57;;;;;;;;;;5065539;28;37620;-81
2021/07/10 17:57:31;;;;;;;12.27;10.52;;;;;;;;;;5065429;28;47066;-80
2021/07/10 17:59:57;;;;;;;11.80;10.60;;;;;;;;;;5060513;28;37351;-81
2021/07/10 18:02:26;;;;;;;14.52;12.40;;;;;;;;;;5065982;27;38037;-79
2021/07/10 18:04:53;;;;;;;16.15;13.35;;;;;;;;;;5057054;28;40032;-80
2021/07/10 18:07:19;;;;;;;15.10;13.15;;;;;;;;;;5054692;28;39198;-80
2021/07/10 18:09:46;;;;;;;18.05;14.48;;;;;;;;;;5055045;28;41030;-81
2021/07/10 18:12:12;;;;;;;16.88;14.55;;;;;;;;;;5058136;28;37083;-81
2021/07/10 18:14:41;;;;;;;14.88;12.70;;;;;;;;;;5057032;28;37306;-80
2021/07/10 18:17:09;;;;;;;15.90;14.15;;;;;;;;;;5065206;28;37276;-82
2021/07/10 18:19:38;;;;;;;15.98;13.55;;;;;;;;;;5053058;28;38209;-82
2021/07/10 18:22:04;;;;;;;19.88;15.40;;;;;;;;;;5060196;28;39020;-82
2021/07/10 18:24:31;;;;;;;19.05;15.30;;;;;;;;;;5050117;28;38084;-81
2021/07/10 18:26:57;;;;;;;17.23;14.85;;;;;;;;;;5054317;28;37557;-81
2021/07/10 18:29:23;;;;;;;17.88;15.43;;;;;;;;;;5064128;28;39052;-81
2021/07/10 18:31:50;;;;;;;19.23;14.63;;;;;;;;;;5065155;28;38640;-81
2021/07/10 18:34:16;;;;;;;19.33;13.77;;;;;;;;;;5051466;28;39390;-81
2021/07/10 18:36:42;;;;;;;18.27;13.65;;;;;;;;;;5051493;28;38444;-82
2021/07/10 18:39:18;;;;;;;17.27;14.65;;;;;;;;;;5048851;28;40758;-82
2021/07/10 18:41:44;;;;;;;19.42;13.90;;;;;;;;;;5051676;28;38423;-83
2021/07/10 18:44:13;;;;;;;17.50;14.52;;;;;;;;;;5051414;28;38956;-82
2021/07/10 18:46:40;;;;;;;16.00;13.35;;;;;;;;;;5059145;28;38299;-82
2021/07/10 18:49:14;;;;;;;21.00;13.85;;;;;;;;;;5059456;28;40054;-81
2021/07/10 18:51:43;;;;;;;16.75;14.32;;;;;;;;;;5057107;28;38891;-80
2021/07/10 18:54:10;;;;;;;20.30;15.50;;;;;;;;;;5064648;28;37802;-83
2021/07/10 18:56:36;;;;;;;20.77;14.73;;;;;;;;;;5062981;27;38815;-83
2021/07/10 18:59:03;;;;;;;20.30;16.23;;;;;;;;;;5070444;28;40978;-84
2021/07/10 19:01:31;;;;;;;21.00;16.80;;;;;;;;;;5055485;28;37562;-83
2021/07/10 19:03:58;;;;;;;26.05;19.73;;;;;;;;;;5059560;28;40618;-84
2021/07/10 19:06:30;;;;;;;20.25;16.92;;;;;;;;;;5052050;28;38401;-83
2021/07/10 19:08:56;;;;;;;21.33;17.50;;;;;;;;;;5053566;28;39692;-84
2021/07/10 19:11:25;;;;;;;20.85;16.95;;;;;;;;;;5053314;28;38093;-83
2021/07/10 19:13:54;;;;;;;19.23;15.55;;;;;;;;;;5057635;28;38023;-83
2021/07/10 19:16:20;;;;;;;17.33;14.75;;;;;;;;;;5044201;28;36668;-83
2021/07/10 19:18:47;;;;;;;19.42;14.68;;;;;;;;;;5052277;28;39067;-84
2021/07/10 19:21:13;;;;;;;16.35;13.43;;;;;;;;;;5050616;28;37463;-85
2021/07/10 19:23:40;;;;;;;15.77;12.23;;;;;;;;;;5057772;28;38773;-85
2021/07/10 19:26:07;;;;;;;15.18;12.80;;;;;;;;;;5057464;28;38331;-84
2021/07/10 19:28:34;;;;;;;15.95;12.40;;;;;;;;;;5046052;28;37419;-84
2021/07/10 19:31:01;;;;;;;14.15;11.73;;;;;;;;;;5053327;28;38571;-84
2021/07/10 19:33:27;;;;;;;15.68;12.65;;;;;;;;;;5060058;28;47152;-83
2021/07/10 19:35:55;;;;;;;18.20;14.82;;;;;;;;;;5059283;28;36344;-83
2021/07/10 19:38:24;;;;;;;17.30;13.30;;;;;;;;;;5052638;28;42492;-83
2021/07/10 19:40:50;;;;;;;19.48;14.35;;;;;;;;;;5055379;27;38572;-83
2021/07/10 19:43:18;;;;;;;17.67;14.65;;;;;;;;;;5055668;28;39853;-84
2021/07/10 19:45:44;;;;;;;19.35;14.68;;;;;;;;;;5056958;28;38960;-83
2021/07/10 19:48:10;;;;;;;17.13;14.18;;;;;;;;;;5060884;28;40228;-83
2021/07/10 19:50:37;;;;;;;17.42;14.05;;;;;;;;;;5058201;28;38387;-84
2021/07/10 19:53:07;;;;;;;18.02;14.85;;;;;;;;;;5060379;28;37464;-84
2021/07/10 19:55:35;;;;;;;20.50;15.73;;;;;;;;;;5057617;28;36836;-83
2021/07/10 19:58:02;;;;;;;22.00;15.95;;;;;;;;;;5072614;28;40126;-84
2021/07/10 20:00:30;;;;;;;22.40;15.52;;;;;;;;;;5026334;28;47682;-83
2021/07/10 20:02:58;;;;;;;21.42;17.25;;;;;;;;;;5060392;28;39803;-83
2021/07/10 20:05:25;;;;;;;21.45;17.10;;;;;;;;;;5055989;28;37812;-83
2021/07/10 20:08:04;;;;;;;19.42;15.88;;;;;;;;;;5056568;28;41497;-82
2021/07/10 20:10:30;;;;;;;18.73;15.68;;;;;;;;;;5046009;28;47810;-83
2021/07/10 20:12:56;;;;;;;19.50;15.93;;;;;;;;;;5054742;28;37257;-85
2021/07/10 20:15:24;;;;;;;19.42;15.77;;;;;;;;;;5054018;28;38055;-84
2021/07/10 20:17:53;;;;;;;22.25;17.13;;;;;;;;;;5053001;28;39442;-84
2021/07/10 20:20:19;;;;;;;22.45;17.58;;;;;;;;;;5045318;27;38822;-85
2021/07/10 20:22:46;;;;;;;22.02;15.73;;;;;;;;;;5060901;28;39266;-83
2021/07/10 20:25:12;;;;;;;24.23;18.23;;;;;;;;;;5055446;28;37304;-83